createdAt,value
2023-04-02T00:02:34.194Z,98722.59
2023-04-02T00:05:34.444Z,98733.69
2023-04-02T00:08:35.115Z,98728.94
2023-04-02T00:11:36.043Z,98732.41
2023-04-02T00:14:36.998Z,98735.16
2023-04-02T00:17:26.195Z,98732.19
2023-04-02T00:20:16.963Z,98728.00
2023-04-02T00:22:56.633Z,98741.00
2023-04-02T00:25:45.549Z,98731.75
2023-04-02T00:28:30.362Z,98742.63
2023-04-02T00:31:18.349Z,98742.75
2023-04-02T00:34:05.301Z,98739.31
2023-04-02T00:36:54.391Z,98732.16
2023-04-02T00:39:45.876Z,98741.44
2023-04-02T00:42:27.405Z,98745.03
2023-04-02T00:45:20.823Z,98735.47
2023-04-02T00:48:02.901Z,98737.63
2023-04-02T00:51:23.215Z,98738.59
2023-04-02T00:54:04.264Z,98739.25
2023-04-02T00:56:49.121Z,98739.72
2023-04-02T00:59:50.827Z,98742.91
2023-04-02T01:02:45.443Z,98733.22
2023-04-02T01:05:35.587Z,98743.56
2023-04-02T01:08:37.799Z,98746.88
2023-04-02T01:11:33.961Z,98752.31
2023-04-02T01:14:36.874Z,98749.41
2023-04-02T01:17:35.505Z,98754.84
2023-04-02T01:20:39.236Z,98755.84
2023-04-02T01:23:47.776Z,98750.84
2023-04-02T01:27:01.117Z,98755.50
2023-04-02T01:29:49.517Z,98759.00
2023-04-02T01:32:34.719Z,98764.00
2023-04-02T01:35:22.549Z,98770.41
2023-04-02T01:38:39.501Z,98763.53
2023-04-02T01:41:47.697Z,98768.66
2023-04-02T01:44:47.485Z,98776.50
2023-04-02T01:47:28.242Z,98775.84
2023-04-02T01:50:54.408Z,98774.22
2023-04-02T01:53:41.021Z,98776.97
2023-04-02T01:56:21.896Z,98778.91
2023-04-02T01:59:00.634Z,98782.84
2023-04-02T02:02:07.921Z,98773.78
2023-04-02T02:04:48.808Z,98772.78
2023-04-02T02:07:32.083Z,98777.59
2023-04-02T02:10:12.483Z,98782.09
2023-04-02T02:13:03.745Z,98786.16
2023-04-02T02:16:03.594Z,98785.38
2023-04-02T02:18:41.570Z,98786.16
2023-04-02T02:21:40.686Z,98787.81
2023-04-02T02:24:32.343Z,98781.66
2023-04-02T02:27:30.739Z,98780.34
2023-04-02T02:30:25.267Z,98773.69
2023-04-02T02:33:17.517Z,98783.22
2023-04-02T02:36:08.441Z,98776.06
2023-04-02T02:39:02.442Z,98783.28
2023-04-02T02:41:52.661Z,98783.31
2023-04-02T02:45:05.406Z,98780.03
2023-04-02T02:47:57.141Z,98782.34
2023-04-02T02:50:38.440Z,98779.41
2023-04-02T02:53:31.028Z,98783.16
2023-04-02T02:56:12.449Z,98779.66
2023-04-02T02:59:00.441Z,98787.91
2023-04-02T03:01:46.793Z,98775.78
2023-04-02T03:04:35.842Z,98779.53
2023-04-02T03:07:17.227Z,98784.72
2023-04-02T03:10:05.787Z,98785.47
2023-04-02T03:13:07.180Z,98782.78
2023-04-02T03:16:10.916Z,98790.41
2023-04-02T03:18:52.682Z,98781.56
2023-04-02T03:21:31.426Z,98782.97
2023-04-02T03:24:14.271Z,98784.97
2023-04-02T03:27:17.030Z,98790.31
2023-04-02T03:30:34.049Z,98786.03
2023-04-02T03:33:32.835Z,98791.22
2023-04-02T03:36:32.388Z,98785.66
2023-04-02T03:39:42.398Z,98781.50
2023-04-02T03:42:26.318Z,98795.31
2023-04-02T03:45:31.276Z,98784.91
2023-04-02T03:48:29.592Z,98799.31
2023-04-02T03:51:18.005Z,98794.50
2023-04-02T03:54:02.008Z,98798.28
2023-04-02T03:56:52.782Z,98808.16
2023-04-02T03:59:42.517Z,98806.47
2023-04-02T04:02:45.605Z,98804.47
2023-04-02T04:05:37.398Z,98810.22
2023-04-02T04:08:51.923Z,98805.53
2023-04-02T04:11:33.600Z,98810.75
2023-04-02T04:14:44.039Z,98821.25
2023-04-02T04:17:37.113Z,98817.72
2023-04-02T04:21:05.235Z,98813.56
2023-04-02T04:24:13.896Z,98814.25
2023-04-02T04:27:17.509Z,98822.91
2023-04-02T04:30:22.040Z,98824.28
2023-04-02T04:33:15.534Z,98826.72
2023-04-02T04:36:20.596Z,98831.22
2023-04-02T04:39:07.990Z,98828.72
2023-04-02T04:41:51.231Z,98827.03
2023-04-02T04:44:59.342Z,98831.56
2023-04-02T04:47:57.521Z,98827.97
2023-04-02T04:50:55.174Z,98831.84
2023-04-02T04:53:40.563Z,98832.78
2023-04-02T04:56:21.731Z,98835.72
2023-04-02T04:59:22.961Z,98833.28
2023-04-02T05:02:54.922Z,98845.78
2023-04-02T05:05:40.398Z,98843.38
2023-04-02T05:08:39.607Z,98846.56
2023-04-02T05:12:15.716Z,98849.69
2023-04-02T05:15:25.578Z,98853.44
2023-04-02T05:18:30.291Z,98849.91
2023-04-02T05:21:22.186Z,98857.97
2023-04-02T05:24:36.196Z,98853.75
2023-04-02T05:30:32.621Z,98859.69
2023-04-02T05:33:24.134Z,98859.00
2023-04-02T05:36:09.478Z,98870.19
2023-04-02T05:39:00.387Z,98864.13
2023-04-02T05:42:06.484Z,98865.59
2023-04-02T05:45:11.958Z,98869.41
2023-04-02T05:48:02.202Z,98870.34
2023-04-02T05:50:53.160Z,98874.09
2023-04-02T05:54:23.392Z,98872.09
2023-04-02T05:57:19.349Z,98878.03
2023-04-02T06:00:05.752Z,98884.63
2023-04-02T06:03:02.046Z,98880.81
2023-04-02T06:05:56.413Z,98883.94
2023-04-02T06:09:03.940Z,98895.16
2023-04-02T06:12:02.717Z,98894.06
2023-04-02T06:14:48.181Z,98900.94
2023-04-02T06:17:27.445Z,98899.41
2023-04-02T06:20:24.328Z,98900.97
2023-04-02T06:23:35.341Z,98896.38
2023-04-02T06:26:40.519Z,98900.41
2023-04-02T06:29:27.571Z,98912.06
2023-04-02T06:32:08.701Z,98908.25
2023-04-02T06:35:01.413Z,98906.22
2023-04-02T06:38:06.228Z,98912.50
2023-04-02T06:41:01.856Z,98908.69
2023-04-02T06:44:00.561Z,98918.22
2023-04-02T06:47:20.138Z,98922.41
2023-04-02T06:50:22.542Z,98925.31
2023-04-02T06:53:09.374Z,98919.03
2023-04-02T06:55:56.817Z,98920.84
2023-04-02T06:58:40.263Z,98933.97
2023-04-02T07:01:29.165Z,98921.22
2023-04-02T07:04:08.516Z,98927.56
2023-04-02T07:06:59.229Z,98933.13
2023-04-02T07:09:51.490Z,98932.19
2023-04-02T07:12:46.896Z,98926.47
2023-04-02T07:15:28.482Z,98937.63
2023-04-02T07:18:28.831Z,98930.13
2023-04-02T07:21:11.515Z,98930.22
2023-04-02T07:24:01.319Z,98931.28
2023-04-02T07:26:52.737Z,98930.97
2023-04-02T07:29:33.603Z,98928.38
2023-04-02T07:32:30.148Z,98931.88
2023-04-02T07:35:18.495Z,98932.13
2023-04-02T07:38:04.234Z,98937.81
2023-04-02T07:40:42.593Z,98933.56
2023-04-02T07:43:23.265Z,98948.41
2023-04-02T07:46:08.169Z,98952.91
2023-04-02T07:48:59.829Z,98950.00
2023-04-02T07:51:44.066Z,98960.13
2023-04-02T07:54:30.502Z,98961.59
2023-04-02T07:57:06.337Z,98963.53
2023-04-02T07:59:50.014Z,98970.66
2023-04-02T08:02:35.544Z,98974.31
2023-04-02T08:05:19.690Z,98977.81
2023-04-02T08:08:03.258Z,98982.66
2023-04-02T08:10:50.017Z,98980.75
2023-04-02T08:13:38.121Z,98987.06
2023-04-02T08:16:23.952Z,98979.84
2023-04-02T08:19:01.810Z,98978.38
2023-04-02T08:21:48.152Z,98979.72
2023-04-02T08:24:32.725Z,98978.44
2023-04-02T08:27:16.314Z,98981.06
2023-04-02T08:30:02.601Z,98969.31
2023-04-02T08:32:45.758Z,98981.28
2023-04-02T08:35:26.555Z,98981.78
2023-04-02T08:38:09.956Z,98984.16
2023-04-02T08:40:59.409Z,98985.34
2023-04-02T08:44:14.350Z,98994.03
2023-04-02T08:47:06.906Z,98991.41
2023-04-02T08:50:10.919Z,98986.81
2023-04-02T08:52:54.756Z,98994.72
2023-04-02T08:55:48.820Z,98999.06
2023-04-02T08:58:38.959Z,98993.09
2023-04-02T09:01:37.202Z,98992.28
2023-04-02T09:04:27.308Z,98996.34
2023-04-02T09:07:08.131Z,98986.03
2023-04-02T09:10:01.058Z,98995.00
2023-04-02T09:12:54.398Z,98995.31
2023-04-02T09:15:58.243Z,98999.91
2023-04-02T09:18:44.494Z,98997.16
2023-04-02T09:21:50.790Z,98997.97
2023-04-02T09:24:40.472Z,98999.75
2023-04-02T09:27:29.568Z,99004.88
2023-04-02T09:30:22.997Z,99007.19
2023-04-02T09:33:08.247Z,99004.75
2023-04-02T09:36:06.575Z,98994.50
2023-04-02T09:38:58.138Z,98996.91
2023-04-02T09:41:39.137Z,98998.63
2023-04-02T09:44:30.594Z,99004.94
2023-04-02T09:47:12.049Z,99007.22
2023-04-02T09:49:56.498Z,99010.47
2023-04-02T09:52:43.248Z,99012.06
2023-04-02T09:55:39.434Z,99013.69
2023-04-02T09:58:31.078Z,99014.19
2023-04-02T10:01:11.726Z,99024.53
2023-04-02T10:03:59.661Z,99018.31
2023-04-02T10:07:02.423Z,99020.97
2023-04-02T10:09:49.110Z,99020.72
2023-04-02T10:12:20.965Z,99024.03
2023-04-02T10:15:08.957Z,99023.19
2023-04-02T10:18:00.324Z,99018.63
2023-04-02T10:20:50.895Z,99016.47
2023-04-02T10:23:42.485Z,99000.59
2023-04-02T10:26:46.914Z,99010.13
2023-04-02T10:30:02.564Z,99012.19
2023-04-02T10:32:55.098Z,99015.53
2023-04-02T10:35:54.625Z,99010.97
2023-04-02T10:38:45.687Z,99010.72
2023-04-02T10:41:49.007Z,99007.84
2023-04-02T10:44:57.188Z,99002.16
2023-04-02T10:47:51.763Z,99002.44
2023-04-02T10:50:52.402Z,98999.53
2023-04-02T10:53:43.234Z,99009.97
2023-04-02T10:56:40.813Z,99001.03
2023-04-02T10:59:37.475Z,98999.34
2023-04-02T11:02:52.269Z,98998.31
2023-04-02T11:05:59.969Z,98989.22
2023-04-02T11:08:49.666Z,98996.81
2023-04-02T11:11:35.036Z,98998.06
2023-04-02T11:14:33.767Z,99001.88
2023-04-02T11:17:24.844Z,99000.81
2023-04-02T11:20:33.284Z,98997.59
2023-04-02T11:23:40.395Z,99007.63
2023-04-02T11:26:40.370Z,98996.41
2023-04-02T11:29:33.249Z,99003.78
2023-04-02T11:32:46.240Z,99002.13
2023-04-02T11:35:43.119Z,98995.47
2023-04-02T11:38:57.614Z,98995.59
2023-04-02T11:42:35.866Z,98997.00
2023-04-02T11:45:53.407Z,99000.28
2023-04-02T11:48:44.931Z,98997.72
2023-04-02T11:51:54.373Z,98994.84
2023-04-02T11:54:44.338Z,98992.34
2023-04-02T11:57:37.215Z,99000.38
2023-04-02T12:00:36.661Z,98985.16
2023-04-02T12:03:21.949Z,98990.75
2023-04-02T12:06:16.427Z,98985.47
2023-04-02T12:09:20.385Z,98988.34
2023-04-02T12:12:05.525Z,98981.19
2023-04-02T12:15:32.901Z,98975.03
2023-04-02T12:18:19.385Z,98973.41
2023-04-02T12:21:01.217Z,98979.94
2023-04-02T12:23:55.246Z,98967.72
2023-04-02T12:26:43.476Z,98973.53
2023-04-02T12:29:39.377Z,98972.69
2023-04-02T12:32:31.217Z,98969.56
2023-04-02T12:35:27.141Z,98965.44
2023-04-02T12:38:03.341Z,98969.81
2023-04-02T12:41:01.652Z,98957.75
2023-04-02T12:43:45.555Z,98962.47
2023-04-02T12:46:32.226Z,98953.69
2023-04-02T12:49:22.188Z,98965.78
2023-04-02T12:52:05.176Z,98955.97
2023-04-02T12:55:02.630Z,98965.44
2023-04-02T12:57:52.802Z,98962.16
2023-04-02T13:00:47.151Z,98967.63
2023-04-02T13:03:27.261Z,98961.72
2023-04-02T13:06:23.461Z,98963.13
2023-04-02T13:09:04.835Z,98965.38
2023-04-02T13:11:44.760Z,98967.94
2023-04-02T13:14:29.632Z,98957.69
2023-04-02T13:17:37.971Z,98965.28
2023-04-02T13:21:00.198Z,98966.09
2023-04-02T13:23:35.972Z,98967.03
2023-04-02T13:26:33.169Z,98969.44
2023-04-02T13:29:29.771Z,98962.84
2023-04-02T13:32:18.392Z,98961.88
2023-04-02T13:34:56.909Z,98976.25
2023-04-02T13:37:40.603Z,98975.13
2023-04-02T13:40:26.712Z,98969.53
2023-04-02T13:43:29.592Z,98966.31
2023-04-02T13:46:26.512Z,98969.97
2023-04-02T13:49:25.788Z,98972.34
2023-04-02T13:52:16.011Z,98970.63
2023-04-02T13:55:07.448Z,98966.47
2023-04-02T13:57:51.169Z,98971.13
2023-04-02T14:00:44.745Z,98972.19
2023-04-02T14:03:29.250Z,98966.06
2023-04-02T14:06:25.807Z,98971.34
2023-04-02T14:09:27.145Z,98986.31
2023-04-02T14:12:24.164Z,98996.16
2023-04-02T14:15:41.213Z,99000.16
2023-04-02T14:18:36.005Z,99023.25
2023-04-02T14:21:41.345Z,99030.78
2023-04-02T14:24:53.079Z,99028.53
2023-04-02T14:28:05.124Z,99045.94
2023-04-02T14:30:58.950Z,99063.25
2023-04-02T14:34:24.544Z,99071.84
2023-04-02T14:37:39.862Z,99072.00
2023-04-02T14:40:24.601Z,99070.44
2023-04-02T14:43:15.569Z,99064.94
2023-04-02T14:46:19.648Z,99068.28
2023-04-02T14:49:21.099Z,99068.91
2023-04-02T14:52:17.243Z,99078.34
2023-04-02T14:55:03.602Z,99074.66
2023-04-02T14:57:56.538Z,99079.22
2023-04-02T15:00:53.145Z,99072.47
2023-04-02T15:03:29.763Z,99078.31
2023-04-02T15:06:13.546Z,99086.47
2023-04-02T15:09:09.324Z,99075.78
2023-04-02T15:12:21.266Z,99062.06
2023-04-02T15:15:40.540Z,99061.22
2023-04-02T15:18:37.160Z,99087.13
2023-04-02T15:22:08.094Z,99087.38
2023-04-02T15:25:03.971Z,99084.19
2023-04-02T15:28:08.685Z,99089.09
2023-04-02T15:30:56.177Z,99075.78
2023-04-02T15:33:57.009Z,99080.06
2023-04-02T15:36:50.124Z,99085.56
2023-04-02T15:39:53.809Z,99078.66
2023-04-02T15:42:51.264Z,99082.25
2023-04-02T15:45:55.593Z,99091.09
2023-04-02T15:48:56.343Z,99078.94
2023-04-02T15:52:01.401Z,99093.06
2023-04-02T15:55:21.696Z,99101.66
2023-04-02T15:58:13.915Z,99109.28
2023-04-02T16:01:22.100Z,99117.25
2023-04-02T16:04:31.507Z,99119.06
2023-04-02T16:07:15.326Z,99114.66
2023-04-02T16:10:41.206Z,99114.94
2023-04-02T16:13:42.199Z,99109.88
2023-04-02T16:16:37.196Z,99108.06
2023-04-02T16:19:58.150Z,99106.91
2023-04-02T16:23:00.865Z,99115.13
2023-04-02T16:26:13.223Z,99109.31
2023-04-02T16:29:15.019Z,99114.34
2023-04-02T16:32:09.979Z,99127.13
2023-04-02T16:35:43.312Z,99127.13
2023-04-02T16:38:46.337Z,99134.78
2023-04-02T16:41:58.565Z,99139.53
2023-04-02T16:45:08.936Z,99139.22
2023-04-02T16:48:52.155Z,99142.44
2023-04-02T16:55:40.097Z,99141.84
2023-04-02T16:58:59.669Z,99153.53
2023-04-02T17:02:02.424Z,99149.03
2023-04-02T17:05:09.861Z,99150.16
2023-04-02T17:08:05.734Z,99155.75
2023-04-02T17:11:08.587Z,99169.72
2023-04-02T17:14:10.960Z,99160.41
2023-04-02T17:16:55.936Z,99160.09
2023-04-02T17:19:48.525Z,99170.88
2023-04-02T17:22:34.643Z,99160.84
2023-04-02T17:25:25.134Z,99172.22
2023-04-02T17:28:16.317Z,99170.78
2023-04-02T17:31:05.944Z,99173.41
2023-04-02T17:33:47.418Z,99180.97
2023-04-02T17:37:00.011Z,99184.25
2023-04-02T17:39:53.825Z,99190.44
2023-04-02T17:43:30.878Z,99189.84
2023-04-02T17:47:00.244Z,99189.38
2023-04-02T17:50:27.814Z,99193.00
2023-04-02T17:53:39.555Z,99204.25
2023-04-02T17:56:38.364Z,99214.00
2023-04-02T17:59:37.886Z,99227.41
2023-04-02T18:02:51.878Z,99222.84
2023-04-02T18:05:56.778Z,99227.41
2023-04-02T18:09:03.309Z,99239.75
2023-04-02T18:12:02.814Z,99257.03
2023-04-02T18:15:12.717Z,99263.47
2023-04-02T18:18:12.821Z,99275.63
2023-04-02T18:21:15.268Z,99291.56
2023-04-02T18:24:23.081Z,99291.09
2023-04-02T18:27:04.637Z,99295.09
2023-04-02T18:30:24.749Z,99291.09
2023-04-02T18:33:45.412Z,99294.06
2023-04-02T18:36:51.210Z,99296.78
2023-04-02T18:39:54.411Z,99310.88
2023-04-02T18:42:48.097Z,99312.53
2023-04-02T18:45:41.422Z,99320.03
2023-04-02T18:48:39.020Z,99322.63
2023-04-02T18:51:37.495Z,99331.47
2023-04-02T18:54:18.020Z,99338.16
2023-04-02T18:57:00.495Z,99338.13
2023-04-02T18:59:57.327Z,99343.53
2023-04-02T19:02:57.246Z,99350.44
2023-04-02T19:05:56.624Z,99359.09
2023-04-02T19:08:51.060Z,99360.91
2023-04-02T19:11:33.782Z,99365.53
2023-04-02T19:14:18.667Z,99369.38
2023-04-02T19:17:43.096Z,99376.03
2023-04-02T19:21:03.038Z,99375.88
2023-04-02T19:24:00.459Z,99383.88
2023-04-02T19:26:53.551Z,99379.41
2023-04-02T19:30:02.271Z,99385.91
2023-04-02T19:33:09.235Z,99386.00
2023-04-02T19:36:19.181Z,99391.84
2023-04-02T19:39:11.173Z,99388.97
2023-04-02T19:42:10.229Z,99394.31
2023-04-02T19:44:55.488Z,99399.03
2023-04-02T19:47:38.567Z,99403.63
2023-04-02T19:50:22.101Z,99403.38
2023-04-02T19:53:04.102Z,99412.53
2023-04-02T19:55:46.636Z,99411.84
2023-04-02T19:58:37.940Z,99417.09
2023-04-02T20:01:24.204Z,99420.66
2023-04-02T20:04:11.076Z,99425.03
2023-04-02T20:06:52.006Z,99434.88
2023-04-02T20:09:39.026Z,99442.59
2023-04-02T20:12:25.568Z,99448.81
2023-04-02T20:15:16.451Z,99454.16
2023-04-02T20:18:01.725Z,99457.00
2023-04-02T20:20:40.389Z,99464.34
2023-04-02T20:23:22.170Z,99459.44
2023-04-02T20:26:05.980Z,99467.91
2023-04-02T20:28:46.697Z,99480.53
2023-04-02T20:31:27.540Z,99479.63
2023-04-02T20:34:09.327Z,99489.84
2023-04-02T20:36:53.799Z,99491.56
2023-04-02T20:39:40.679Z,99494.63
2023-04-02T20:42:24.933Z,99497.72
2023-04-02T20:45:10.739Z,99503.00
2023-04-02T20:47:49.165Z,99511.75
2023-04-02T20:50:48.180Z,99517.25
2023-04-02T20:53:31.856Z,99526.25
2023-04-02T20:56:29.605Z,99528.81
2023-04-02T20:59:06.676Z,99525.75
2023-04-02T21:01:53.883Z,99531.59
2023-04-02T21:04:42.063Z,99540.13
2023-04-02T21:07:26.161Z,99546.34
2023-04-02T21:10:04.112Z,99535.97
2023-04-02T21:12:52.544Z,99537.88
2023-04-02T21:15:45.920Z,99549.66
2023-04-02T21:18:26.547Z,99553.38
2023-04-02T21:21:31.477Z,99548.63
2023-04-02T21:24:14.158Z,99552.16
2023-04-02T21:26:59.337Z,99569.72
2023-04-02T21:29:49.121Z,99560.81
2023-04-02T21:32:38.591Z,99566.84
2023-04-02T21:35:25.132Z,99573.03
2023-04-02T21:38:14.988Z,99575.09
2023-04-02T21:41:01.390Z,99575.94
2023-04-02T21:43:44.654Z,99575.94
2023-04-02T21:46:25.953Z,99578.00
2023-04-02T21:49:08.536Z,99574.69
2023-04-02T21:51:51.414Z,99581.34
2023-04-02T21:54:32.206Z,99583.81
2023-04-02T21:57:19.306Z,99576.75
2023-04-02T22:00:00.985Z,99594.34
2023-04-02T22:02:41.953Z,99581.94
2023-04-02T22:05:32.177Z,99587.97
2023-04-02T22:08:24.526Z,99585.06
2023-04-02T22:11:18.165Z,99590.44
2023-04-02T22:14:10.442Z,99589.59
2023-04-02T22:16:54.573Z,99596.81
2023-04-02T22:19:48.095Z,99597.88
2023-04-02T22:22:34.717Z,99597.59
2023-04-02T22:25:16.142Z,99589.16
2023-04-02T22:27:57.113Z,99602.97
2023-04-02T22:30:42.930Z,99601.53
2023-04-02T22:33:31.644Z,99605.44
2023-04-02T22:36:15.543Z,99610.38
2023-04-02T22:39:07.081Z,99619.06
2023-04-02T22:41:47.872Z,99613.06
2023-04-02T22:44:30.621Z,99614.72
2023-04-02T22:47:19.118Z,99613.22
2023-04-02T22:50:05.534Z,99612.44
2023-04-02T22:52:49.803Z,99620.44
2023-04-02T22:55:46.315Z,99624.97
2023-04-02T22:58:31.603Z,99617.91
2023-04-02T23:01:26.549Z,99624.56
2023-04-02T23:04:23.648Z,99616.44
2023-04-02T23:07:07.352Z,99624.31
2023-04-02T23:09:49.526Z,99624.50
2023-04-02T23:12:30.099Z,99625.91
2023-04-02T23:15:11.783Z,99628.59
2023-04-02T23:17:57.230Z,99634.94
2023-04-02T23:20:46.593Z,99633.31
2023-04-02T23:23:35.033Z,99632.91
2023-04-02T23:26:33.111Z,99637.88
2023-04-02T23:29:11.781Z,99638.06
2023-04-02T23:31:55.085Z,99634.56
2023-04-02T23:34:33.523Z,99643.19
2023-04-02T23:37:20.463Z,99643.13
2023-04-02T23:40:09.781Z,99649.97
2023-04-02T23:42:53.526Z,99653.13
2023-04-02T23:45:42.267Z,99652.06
2023-04-02T23:48:28.441Z,99646.69
2023-04-02T23:51:14.445Z,99646.28
2023-04-02T23:53:50.920Z,99646.13
2023-04-02T23:56:32.130Z,99653.50
2023-04-02T23:59:12.312Z,99649.97
